Terminal Aerodrome Forecast
Issued by NWS Sioux Falls, SD

Home | Current Version | Previous Version | Graphics & Text | Print | Product List | Glossary On
Versions: 1 2 3 4 5 6 7 8 9 10 11 12 13 14
000
FTUS43 KFSD 030915 AAA
TAFHON
TAF AMD
KHON 030915Z 0309/0406 15007KT 6SM -SN OVC060
     FM031100 16005KT 1SM -SN OVC009
     FM031300 35030G40KT 1/2SM -SN BLSN OVC009
     FM031700 34028G38KT 4SM BLSN BKN030
     FM032100 33020G30KT P6SM SCT035 BKN150
     FM040100 29008KT P6SM SKC=

USA.gov is the U.S. government's official web portal to all federal, state and local government web resources and services.